sensor_id;sensor_type;location;lat;lon;timestamp;pressure;altitude;pressure_sealevel;temperature;humidity
70909;BME280;58554;52.006;5.926;2023-09-30T00:01:11;101626.16;;;17.18;60.53
70909;BME280;58554;52.006;5.926;2023-09-30T00:03:38;101629.72;;;17.19;60.83
70909;BME280;58554;52.006;5.926;2023-09-30T00:06:08;101636.00;;;17.18;60.86
70909;BME280;58554;52.006;5.926;2023-09-30T00:08:34;101633.44;;;17.16;60.75
70909;BME280;58554;52.006;5.926;2023-09-30T00:11:01;101633.44;;;17.16;60.97
70909;BME280;58554;52.006;5.926;2023-09-30T00:13:28;101622.88;;;17.15;61.07
70909;BME280;58554;52.006;5.926;2023-09-30T00:15:54;101618.28;;;17.17;61.04
70909;BME280;58554;52.006;5.926;2023-09-30T00:18:21;101630.78;;;17.16;60.81
70909;BME280;58554;52.006;5.926;2023-09-30T00:20:47;101639.66;;;17.17;60.92
70909;BME280;58554;52.006;5.926;2023-09-30T00:23:16;101636.75;;;17.20;61.08
70909;BME280;58554;52.006;5.926;2023-09-30T00:25:43;101637.75;;;17.19;60.93
70909;BME280;58554;52.006;5.926;2023-09-30T00:28:10;101635.06;;;17.19;61.11
70909;BME280;58554;52.006;5.926;2023-09-30T00:30:36;101640.41;;;17.19;61.11
70909;BME280;58554;52.006;5.926;2023-09-30T00:33:03;101642.34;;;17.17;61.22
70909;BME280;58554;52.006;5.926;2023-09-30T00:35:32;101639.88;;;17.14;61.19
70909;BME280;58554;52.006;5.926;2023-09-30T00:37:58;101638.47;;;17.08;61.27
70909;BME280;58554;52.006;5.926;2023-09-30T00:40:27;101632.38;;;17.06;61.21
70909;BME280;58554;52.006;5.926;2023-09-30T00:42:54;101631.53;;;17.06;61.17
70909;BME280;58554;52.006;5.926;2023-09-30T00:45:20;101644.81;;;17.07;61.25
70909;BME280;58554;52.006;5.926;2023-09-30T00:47:47;101652.81;;;17.07;61.19
70909;BME280;58554;52.006;5.926;2023-09-30T00:50:14;101652.91;;;17.06;61.19
70909;BME280;58554;52.006;5.926;2023-09-30T00:52:42;101653.16;;;17.03;61.18
70909;BME280;58554;52.006;5.926;2023-09-30T00:55:12;101659.44;;;17.02;61.44
70909;BME280;58554;52.006;5.926;2023-09-30T00:57:41;101662.13;;;17.02;61.28
70909;BME280;58554;52.006;5.926;2023-09-30T01:00:11;101663.94;;;17.01;61.18
70909;BME280;58554;52.006;5.926;2023-09-30T01:02:38;101672.94;;;17.00;61.30
70909;BME280;58554;52.006;5.926;2023-09-30T01:05:06;101672.06;;;16.99;61.26
70909;BME280;58554;52.006;5.926;2023-09-30T01:07:33;101672.06;;;16.99;61.32
70909;BME280;58554;52.006;5.926;2023-09-30T01:10:00;101677.28;;;17.01;61.23
70909;BME280;58554;52.006;5.926;2023-09-30T01:12:26;101675.69;;;16.98;61.42
70909;BME280;58554;52.006;5.926;2023-09-30T01:14:59;101670.25;;;17.00;61.41
70909;BME280;58554;52.006;5.926;2023-09-30T01:17:26;101665.88;;;16.99;61.47
70909;BME280;58554;52.006;5.926;2023-09-30T01:19:53;101664.03;;;16.99;61.26
70909;BME280;58554;52.006;5.926;2023-09-30T01:22:22;101670.34;;;16.98;61.19
70909;BME280;58554;52.006;5.926;2023-09-30T01:24:48;101673.88;;;16.99;61.17
70909;BME280;58554;52.006;5.926;2023-09-30T01:27:15;101674.84;;;16.98;61.27
70909;BME280;58554;52.006;5.926;2023-09-30T01:29:41;101675.69;;;16.98;61.42
70909;BME280;58554;52.006;5.926;2023-09-30T01:32:08;101674.72;;;16.99;61.35
70909;BME280;58554;52.006;5.926;2023-09-30T01:34:35;101668.63;;;16.97;61.45
70909;BME280;58554;52.006;5.926;2023-09-30T01:37:01;101679.56;;;16.94;61.31
70909;BME280;58554;52.006;5.926;2023-09-30T01:39:30;101684.25;;;16.91;61.40
70909;BME280;58554;52.006;5.926;2023-09-30T01:41:57;101696.09;;;16.87;61.22
70909;BME280;58554;52.006;5.926;2023-09-30T01:44:24;101693.72;;;16.82;61.22
70909;BME280;58554;52.006;5.926;2023-09-30T01:46:50;101696.50;;;16.80;61.42
70909;BME280;58554;52.006;5.926;2023-09-30T01:49:17;101684.97;;;16.80;61.37
70909;BME280;58554;52.006;5.926;2023-09-30T01:51:43;101690.19;;;16.82;61.60
70909;BME280;58554;52.006;5.926;2023-09-30T01:54:10;101680.56;;;16.79;61.60
70909;BME280;58554;52.006;5.926;2023-09-30T01:56:39;101683.38;;;16.77;61.68
70909;BME280;58554;52.006;5.926;2023-09-30T01:59:08;101685.28;;;16.75;61.62
70909;BME280;58554;52.006;5.926;2023-09-30T02:01:34;101680.88;;;16.74;61.82
70909;BME280;58554;52.006;5.926;2023-09-30T02:04:01;101679.94;;;16.75;61.82
70909;BME280;58554;52.006;5.926;2023-09-30T02:06:28;101673.63;;;16.76;61.71
70909;BME280;58554;52.006;5.926;2023-09-30T02:08:54;101682.63;;;16.75;61.57
70909;BME280;58554;52.006;5.926;2023-09-30T02:11:21;101675.44;;;16.76;61.99
70909;BME280;58554;52.006;5.926;2023-09-30T02:13:50;101667.44;;;16.76;61.77
70909;BME280;58554;52.006;5.926;2023-09-30T02:16:17;101665.50;;;16.78;61.75
70909;BME280;58554;52.006;5.926;2023-09-30T02:18:43;101665.59;;;16.76;61.75
70909;BME280;58554;52.006;5.926;2023-09-30T02:21:10;101670.94;;;16.76;61.60
70909;BME280;58554;52.006;5.926;2023-09-30T02:23:37;101671.94;;;16.75;61.64
70909;BME280;58554;52.006;5.926;2023-09-30T02:26:04;101677.28;;;16.75;61.85
70909;BME280;58554;52.006;5.926;2023-09-30T02:28:30;101686.88;;;16.78;61.69
70909;BME280;58554;52.006;5.926;2023-09-30T02:30:59;101694.78;;;16.79;61.61
70909;BME280;58554;52.006;5.926;2023-09-30T02:33:26;101684.97;;;16.80;61.58
70909;BME280;58554;52.006;5.926;2023-09-30T02:35:53;101679.72;;;16.78;61.82
70909;BME280;58554;52.006;5.926;2023-09-30T02:38:19;101677.88;;;16.79;61.65
70909;BME280;58554;52.006;5.926;2023-09-30T02:40:47;101679.81;;;16.77;61.73
70909;BME280;58554;52.006;5.926;2023-09-30T02:43:14;101683.47;;;16.76;61.55
70909;BME280;58554;52.006;5.926;2023-09-30T02:45:40;101684.41;;;16.75;61.76
70909;BME280;58554;52.006;5.926;2023-09-30T02:48:09;101691.56;;;16.74;62.02
70909;BME280;58554;52.006;5.926;2023-09-30T02:50:36;101678.97;;;16.76;61.80
70909;BME280;58554;52.006;5.926;2023-09-30T02:53:03;101670.94;;;16.76;62.05
70909;BME280;58554;52.006;5.926;2023-09-30T02:55:29;101662.09;;;16.76;62.09
70909;BME280;58554;52.006;5.926;2023-09-30T02:57:56;101664.84;;;16.74;62.19
70909;BME280;58554;52.006;5.926;2023-09-30T03:00:22;101664.84;;;16.74;62.37
70909;BME280;58554;52.006;5.926;2023-09-30T03:02:49;101663.03;;;16.75;62.28
70909;BME280;58554;52.006;5.926;2023-09-30T03:05:20;101672.69;;;16.77;62.17
70909;BME280;58554;52.006;5.926;2023-09-30T03:07:48;101676.09;;;16.79;62.42
70909;BME280;58554;52.006;5.926;2023-09-30T03:10:16;101673.22;;;16.83;62.12
70909;BME280;58554;52.006;5.926;2023-09-30T03:12:42;101667.00;;;16.82;62.18
70909;BME280;58554;52.006;5.926;2023-09-30T03:15:10;101659.88;;;16.83;62.07
70909;BME280;58554;52.006;5.926;2023-09-30T03:17:36;101669.63;;;16.84;62.17
70909;BME280;58554;52.006;5.926;2023-09-30T03:20:04;101666.16;;;16.82;62.09
70909;BME280;58554;52.006;5.926;2023-09-30T03:22:34;101667.00;;;16.82;62.11
70909;BME280;58554;52.006;5.926;2023-09-30T03:25:01;101682.09;;;16.83;62.10
70909;BME280;58554;52.006;5.926;2023-09-30T03:27:27;101675.81;;;16.84;62.13
70909;BME280;58554;52.006;5.926;2023-09-30T03:29:54;101673.97;;;16.85;62.30
70909;BME280;58554;52.006;5.926;2023-09-30T03:32:20;101668.75;;;16.83;62.20
70909;BME280;58554;52.006;5.926;2023-09-30T03:34:47;101660.63;;;16.85;62.05
70909;BME280;58554;52.006;5.926;2023-09-30T03:37:13;101654.34;;;16.86;62.05
70909;BME280;58554;52.006;5.926;2023-09-30T03:39:42;101661.38;;;16.87;62.24
70909;BME280;58554;52.006;5.926;2023-09-30T03:42:09;101656.88;;;16.87;62.24
70909;BME280;58554;52.006;5.926;2023-09-30T03:44:35;101649.63;;;16.89;62.17
70909;BME280;58554;52.006;5.926;2023-09-30T03:47:02;101654.09;;;16.89;62.26
70909;BME280;58554;52.006;5.926;2023-09-30T03:49:29;101647.06;;;16.88;62.21
70909;BME280;58554;52.006;5.926;2023-09-30T03:51:56;101635.50;;;16.87;62.04
70909;BME280;58554;52.006;5.926;2023-09-30T03:54:22;101644.41;;;16.88;62.12
70909;BME280;58554;52.006;5.926;2023-09-30T03:56:52;101646.09;;;16.89;62.13
70909;BME280;58554;52.006;5.926;2023-09-30T03:59:18;101667.56;;;16.87;62.21
70909;BME280;58554;52.006;5.926;2023-09-30T04:01:45;101664.03;;;16.87;62.16
70909;BME280;58554;52.006;5.926;2023-09-30T04:04:11;101654.34;;;16.86;62.06
70909;BME280;58554;52.006;5.926;2023-09-30T04:06:38;101665.03;;;16.86;62.25
70909;BME280;58554;52.006;5.926;2023-09-30T04:09:05;101659.00;;;16.82;62.19
70909;BME280;58554;52.006;5.926;2023-09-30T04:11:31;101659.94;;;16.81;62.09
70909;BME280;58554;52.006;5.926;2023-09-30T04:14:00;101664.34;;;16.82;62.43
70909;BME280;58554;52.006;5.926;2023-09-30T04:16:27;101668.84;;;16.82;62.19
70909;BME280;58554;52.006;5.926;2023-09-30T04:18:53;101675.03;;;16.82;62.07
70909;BME280;58554;52.006;5.926;2023-09-30T04:21:20;101673.22;;;16.83;62.35
70909;BME280;58554;52.006;5.926;2023-09-30T04:23:46;101673.13;;;16.84;62.19
70909;BME280;58554;52.006;5.926;2023-09-30T04:26:13;101672.28;;;16.84;62.14
70909;BME280;58554;52.006;5.926;2023-09-30T04:28:39;101673.97;;;16.85;62.35
70909;BME280;58554;52.006;5.926;2023-09-30T04:31:08;101675.72;;;16.86;62.25
70909;BME280;58554;52.006;5.926;2023-09-30T04:33:35;101675.56;;;16.87;61.92
70909;BME280;58554;52.006;5.926;2023-09-30T04:36:02;101680.91;;;16.87;62.13
70909;BME280;58554;52.006;5.926;2023-09-30T04:38:30;101676.56;;;16.86;62.22
70909;BME280;58554;52.006;5.926;2023-09-30T04:40:56;101677.31;;;16.88;62.22
70909;BME280;58554;52.006;5.926;2023-09-30T04:43:23;101670.97;;;16.89;62.20
70909;BME280;58554;52.006;5.926;2023-09-30T04:45:49;101684.34;;;16.89;61.94
70909;BME280;58554;52.006;5.926;2023-09-30T04:48:18;101687.00;;;16.89;62.16
70909;BME280;58554;52.006;5.926;2023-09-30T04:50:45;101691.50;;;16.89;61.97
70909;BME280;58554;52.006;5.926;2023-09-30T04:53:11;101682.75;;;16.87;62.15
70909;BME280;58554;52.006;5.926;2023-09-30T04:55:38;101682.97;;;16.84;62.01
70909;BME280;58554;52.006;5.926;2023-09-30T04:58:04;101684.13;;;16.79;62.26
70909;BME280;58554;52.006;5.926;2023-09-30T05:00:31;101684.31;;;16.76;62.32
70909;BME280;58554;52.006;5.926;2023-09-30T05:02:57;101686.97;;;16.76;62.39
70909;BME280;58554;52.006;5.926;2023-09-30T05:05:26;101684.22;;;16.78;62.42
70909;BME280;58554;52.006;5.926;2023-09-30T05:07:53;101679.72;;;16.78;62.25
70909;BME280;58554;52.006;5.926;2023-09-30T05:10:21;101684.22;;;16.78;62.08
70909;BME280;58554;52.006;5.926;2023-09-30T05:12:47;101694.03;;;16.77;62.47
70909;BME280;58554;52.006;5.926;2023-09-30T05:15:15;101704.81;;;16.76;62.51
70909;BME280;58554;52.006;5.926;2023-09-30T05:17:42;101703.84;;;16.77;62.25
70909;BME280;58554;52.006;5.926;2023-09-30T05:20:10;101702.16;;;16.76;62.41
70909;BME280;58554;52.006;5.926;2023-09-30T05:22:40;101704.06;;;16.74;62.41
70909;BME280;58554;52.006;5.926;2023-09-30T05:25:08;101697.97;;;16.72;62.35
70909;BME280;58554;52.006;5.926;2023-09-30T05:27:34;101707.06;;;16.69;62.60
70909;BME280;58554;52.006;5.926;2023-09-30T05:30:01;101695.72;;;16.66;62.96
70909;BME280;58554;52.006;5.926;2023-09-30T05:32:27;101703.56;;;16.69;62.65
70909;BME280;58554;52.006;5.926;2023-09-30T05:34:54;101702.56;;;16.70;62.67
70909;BME280;58554;52.006;5.926;2023-09-30T05:37:21;101701.72;;;16.69;62.67
70909;BME280;58554;52.006;5.926;2023-09-30T05:39:50;101697.00;;;16.60;62.33
70909;BME280;58554;52.006;5.926;2023-09-30T05:42:17;101699.66;;;16.47;62.55
70909;BME280;58554;52.006;5.926;2023-09-30T05:44:44;101696.19;;;16.32;62.44
70909;BME280;58554;52.006;5.926;2023-09-30T05:47:10;101697.41;;;16.14;62.73
70909;BME280;58554;52.006;5.926;2023-09-30T05:49:37;101706.63;;;15.95;63.01
70909;BME280;58554;52.006;5.926;2023-09-30T05:52:04;101696.25;;;15.76;63.12
70909;BME280;58554;52.006;5.926;2023-09-30T05:54:30;101705.44;;;15.58;63.52
70909;BME280;58554;52.006;5.926;2023-09-30T05:57:00;101713.72;;;15.39;63.67
70909;BME280;58554;52.006;5.926;2023-09-30T05:59:27;101712.22;;;15.21;64.05
70909;BME280;58554;52.006;5.926;2023-09-30T06:01:53;101717.72;;;15.03;64.46
70909;BME280;58554;52.006;5.926;2023-09-30T06:04:20;101721.34;;;14.88;64.66
70909;BME280;58554;52.006;5.926;2023-09-30T06:06:46;101709.78;;;14.73;65.18
70909;BME280;58554;52.006;5.926;2023-09-30T06:09:13;101715.06;;;14.58;65.43
70909;BME280;58554;52.006;5.926;2023-09-30T06:11:39;101716.53;;;14.48;65.67
70909;BME280;58554;52.006;5.926;2023-09-30T06:14:09;101710.13;;;14.36;65.95
70909;BME280;58554;52.006;5.926;2023-09-30T06:16:35;101713.41;;;14.26;66.17
70909;BME280;58554;52.006;5.926;2023-09-30T06:19:02;101712.28;;;14.14;66.51
70909;BME280;58554;52.006;5.926;2023-09-30T06:21:28;101712.84;;;14.05;66.73
70909;BME280;58554;52.006;5.926;2023-09-30T06:23:55;101713.34;;;13.95;67.10
70909;BME280;58554;52.006;5.926;2023-09-30T06:26:22;101718.16;;;13.89;67.26
70909;BME280;58554;52.006;5.926;2023-09-30T06:28:48;101712.41;;;13.81;67.63
70909;BME280;58554;52.006;5.926;2023-09-30T06:31:17;101711.81;;;13.75;67.74
70909;BME280;58554;52.006;5.926;2023-09-30T06:33:44;101716.63;;;13.69;67.90
70909;BME280;58554;52.006;5.926;2023-09-30T06:36:11;101716.00;;;13.64;68.32
70909;BME280;58554;52.006;5.926;2023-09-30T06:38:39;101726.88;;;13.59;68.50
70909;BME280;58554;52.006;5.926;2023-09-30T06:41:06;101731.53;;;13.54;68.81
70909;BME280;58554;52.006;5.926;2023-09-30T06:43:33;101731.81;;;13.49;69.07
70909;BME280;58554;52.006;5.926;2023-09-30T06:45:59;101728.56;;;13.44;69.27
70909;BME280;58554;52.006;5.926;2023-09-30T06:48:33;101732.25;;;13.42;69.64
70909;BME280;58554;52.006;5.926;2023-09-30T06:51:00;101748.69;;;13.48;69.79
70909;BME280;58554;52.006;5.926;2023-09-30T06:53:27;101759.06;;;13.53;69.77
70909;BME280;58554;52.006;5.926;2023-09-30T06:55:54;101756.41;;;13.53;69.82
70909;BME280;58554;52.006;5.926;2023-09-30T06:58:21;101761.81;;;13.51;70.10
70909;BME280;58554;52.006;5.926;2023-09-30T07:00:49;101756.50;;;13.51;70.14
70909;BME280;58554;52.006;5.926;2023-09-30T07:03:17;101752.03;;;13.52;70.27
70909;BME280;58554;52.006;5.926;2023-09-30T07:05:46;101760.00;;;13.52;70.35
70909;BME280;58554;52.006;5.926;2023-09-30T07:08:13;101770.47;;;13.55;70.56
70909;BME280;58554;52.006;5.926;2023-09-30T07:10:40;101769.56;;;13.56;70.77
70909;BME280;58554;52.006;5.926;2023-09-30T07:13:06;101759.84;;;13.55;70.76
70909;BME280;58554;52.006;5.926;2023-09-30T07:15:33;101766.91;;;13.56;70.75
70909;BME280;58554;52.006;5.926;2023-09-30T07:18:00;101784.56;;;13.57;71.17
70909;BME280;58554;52.006;5.926;2023-09-30T07:20:26;101789.91;;;13.57;71.28
70909;BME280;58554;52.006;5.926;2023-09-30T07:22:56;101795.03;;;13.60;71.16
70909;BME280;58554;52.006;5.926;2023-09-30T07:25:22;101797.63;;;13.62;71.55
70909;BME280;58554;52.006;5.926;2023-09-30T07:27:49;101796.69;;;13.63;71.29
70909;BME280;58554;52.006;5.926;2023-09-30T07:30:15;101805.50;;;13.63;71.53
70909;BME280;58554;52.006;5.926;2023-09-30T07:32:42;101798.25;;;13.67;71.67
70909;BME280;58554;52.006;5.926;2023-09-30T07:35:10;101807.91;;;13.68;71.76
70909;BME280;58554;52.006;5.926;2023-09-30T07:37:37;101806.81;;;13.72;71.53
70909;BME280;58554;52.006;5.926;2023-09-30T07:40:08;101808.44;;;13.74;71.95
70909;BME280;58554;52.006;5.926;2023-09-30T07:42:35;101813.69;;;13.76;72.04
70909;BME280;58554;52.006;5.926;2023-09-30T07:45:03;101810.84;;;13.79;72.28
70909;BME280;58554;52.006;5.926;2023-09-30T07:47:30;101815.16;;;13.82;72.33
70909;BME280;58554;52.006;5.926;2023-09-30T07:49:57;101816.72;;;13.86;72.33
70909;BME280;58554;52.006;5.926;2023-09-30T07:52:24;101819.88;;;13.92;72.18
70909;BME280;58554;52.006;5.926;2023-09-30T07:54:51;101819.63;;;13.97;72.48
70909;BME280;58554;52.006;5.926;2023-09-30T07:57:20;101821.09;;;14.03;72.41
70909;BME280;58554;52.006;5.926;2023-09-30T07:59:47;101826.16;;;14.07;72.55
70909;BME280;58554;52.006;5.926;2023-09-30T08:02:14;101827.72;;;14.11;72.40
70909;BME280;58554;52.006;5.926;2023-09-30T08:04:40;101824.72;;;14.17;72.59
70909;BME280;58554;52.006;5.926;2023-09-30T08:07:07;101836.97;;;14.20;72.50
70909;BME280;58554;52.006;5.926;2023-09-30T08:09:33;101836.91;;;14.22;72.62
70909;BME280;58554;52.006;5.926;2023-09-30T08:12:00;101833.28;;;14.23;72.89
70909;BME280;58554;52.006;5.926;2023-09-30T08:14:29;101831.31;;;14.26;72.65
70909;BME280;58554;52.006;5.926;2023-09-30T08:16:56;101830.28;;;14.29;72.87
70909;BME280;58554;52.006;5.926;2023-09-30T08:19:22;101826.69;;;14.30;72.97
70909;BME280;58554;52.006;5.926;2023-09-30T08:21:49;101813.19;;;14.33;72.88
70909;BME280;58554;52.006;5.926;2023-09-30T08:24:15;101814.75;;;14.37;72.98
70909;BME280;58554;52.006;5.926;2023-09-30T08:26:42;101809.19;;;14.42;73.16
70909;BME280;58554;52.006;5.926;2023-09-30T08:29:08;101813.47;;;14.44;73.04
70909;BME280;58554;52.006;5.926;2023-09-30T08:31:37;101818.53;;;14.49;73.04
70909;BME280;58554;52.006;5.926;2023-09-30T08:34:04;101819.22;;;14.52;73.12
70909;BME280;58554;52.006;5.926;2023-09-30T08:36:31;101813.63;;;14.57;73.13
70909;BME280;58554;52.006;5.926;2023-09-30T08:38:58;101800.13;;;14.60;73.30
70909;BME280;58554;52.006;5.926;2023-09-30T08:41:33;101802.63;;;14.63;73.04
70909;BME280;58554;52.006;5.926;2023-09-30T08:44:01;101798.81;;;14.67;73.24
70909;BME280;58554;52.006;5.926;2023-09-30T08:46:31;101800.44;;;14.70;73.17
70909;BME280;58554;52.006;5.926;2023-09-30T08:49:02;101808.31;;;14.73;73.17
70909;BME280;58554;52.006;5.926;2023-09-30T08:51:31;101814.41;;;14.75;73.08
70909;BME280;58554;52.006;5.926;2023-09-30T08:54:00;101816.88;;;14.78;73.13
70909;BME280;58554;52.006;5.926;2023-09-30T08:56:28;101809.66;;;14.80;73.25
70909;BME280;58554;52.006;5.926;2023-09-30T08:58:57;101819.19;;;14.84;73.06
70909;BME280;58554;52.006;5.926;2023-09-30T09:01:25;101823.38;;;14.88;73.18
70909;BME280;58554;52.006;5.926;2023-09-30T09:03:53;101831.00;;;14.94;73.16
70909;BME280;58554;52.006;5.926;2023-09-30T09:06:23;101817.41;;;14.99;73.35
70909;BME280;58554;52.006;5.926;2023-09-30T09:08:51;101818.78;;;15.06;73.37
70909;BME280;58554;52.006;5.926;2023-09-30T09:11:18;101806.88;;;15.12;73.27
70909;BME280;58554;52.006;5.926;2023-09-30T09:13:49;101815.47;;;15.17;73.18
70909;BME280;58554;52.006;5.926;2023-09-30T09:16:16;101815.09;;;15.23;73.04
70909;BME280;58554;52.006;5.926;2023-09-30T09:18:43;101812.06;;;15.29;73.08
70909;BME280;58554;52.006;5.926;2023-09-30T09:21:11;101813.41;;;15.36;72.91
70909;BME280;58554;52.006;5.926;2023-09-30T09:23:42;101809.38;;;15.44;72.85
70909;BME280;58554;52.006;5.926;2023-09-30T09:26:11;101815.31;;;15.49;72.72
70909;BME280;58554;52.006;5.926;2023-09-30T09:28:38;101819.41;;;15.54;72.72
70909;BME280;58554;52.006;5.926;2023-09-30T09:31:20;101826.94;;;15.62;72.86
70909;BME280;58554;52.006;5.926;2023-09-30T09:33:47;101827.59;;;15.66;72.51
70909;BME280;58554;52.006;5.926;2023-09-30T09:36:15;101837.97;;;15.70;72.53
70909;BME280;58554;52.006;5.926;2023-09-30T09:38:48;101843.13;;;15.73;72.35
70909;BME280;58554;52.006;5.926;2023-09-30T09:41:16;101849.03;;;15.78;72.43
70909;BME280;58554;52.006;5.926;2023-09-30T09:43:42;101848.88;;;15.82;72.42
70909;BME280;58554;52.006;5.926;2023-09-30T09:46:10;101861.06;;;15.86;72.30
70909;BME280;58554;52.006;5.926;2023-09-30T09:48:37;101859.06;;;15.89;72.54
70909;BME280;58554;52.006;5.926;2023-09-30T09:51:05;101852.56;;;15.93;72.44
70909;BME280;58554;52.006;5.926;2023-09-30T09:53:34;101849.63;;;15.98;72.32
70909;BME280;58554;52.006;5.926;2023-09-30T09:56:08;101850.09;;;16.05;72.29
70909;BME280;58554;52.006;5.926;2023-09-30T09:58:36;101850.75;;;16.08;72.38
70909;BME280;58554;52.006;5.926;2023-09-30T10:01:03;101857.72;;;16.11;72.28
70909;BME280;58554;52.006;5.926;2023-09-30T10:03:31;101862.84;;;16.14;72.40
70909;BME280;58554;52.006;5.926;2023-09-30T10:05:58;101857.34;;;16.17;72.33
70909;BME280;58554;52.006;5.926;2023-09-30T10:08:31;101861.63;;;16.19;72.00
70909;BME280;58554;52.006;5.926;2023-09-30T10:11:04;101864.19;;;16.21;72.10
70909;BME280;58554;52.006;5.926;2023-09-30T10:13:50;101862.91;;;16.27;71.95
70909;BME280;58554;52.006;5.926;2023-09-30T10:16:48;101867.03;;;16.32;72.29
70909;BME280;58554;52.006;5.926;2023-09-30T10:19:16;101873.13;;;16.34;71.98
70909;BME280;58554;52.006;5.926;2023-09-30T10:24:48;101868.91;;;16.45;71.98
70909;BME280;58554;52.006;5.926;2023-09-30T10:27:32;101871.19;;;16.51;72.13
70909;BME280;58554;52.006;5.926;2023-09-30T10:30:08;101854.09;;;16.53;71.91
70909;BME280;58554;52.006;5.926;2023-09-30T10:33:09;101840.34;;;16.59;72.10
70909;BME280;58554;52.006;5.926;2023-09-30T10:35:47;101838.25;;;16.65;71.97
70909;BME280;58554;52.006;5.926;2023-09-30T10:38:39;101828.84;;;16.72;71.80
70909;BME280;58554;52.006;5.926;2023-09-30T10:41:07;101830.38;;;16.76;71.25
70909;BME280;58554;52.006;5.926;2023-09-30T10:43:38;101835.28;;;16.82;70.87
70909;BME280;58554;52.006;5.926;2023-09-30T10:46:31;101829.59;;;16.88;70.92
70909;BME280;58554;52.006;5.926;2023-09-30T10:49:21;101823.81;;;16.94;70.72
70909;BME280;58554;52.006;5.926;2023-09-30T10:51:57;101826.28;;;16.97;70.67
70909;BME280;58554;52.006;5.926;2023-09-30T10:54:27;101822.34;;;17.03;70.50
70909;BME280;58554;52.006;5.926;2023-09-30T10:56:57;101812.94;;;17.10;70.45
70909;BME280;58554;52.006;5.926;2023-09-30T10:59:28;101818.50;;;17.20;70.34
70909;BME280;58554;52.006;5.926;2023-09-30T11:01:56;101817.91;;;17.29;70.23
70909;BME280;58554;52.006;5.926;2023-09-30T11:04:23;101824.09;;;17.43;69.94
70909;BME280;58554;52.006;5.926;2023-09-30T11:06:49;101829.53;;;17.54;69.69
70909;BME280;58554;52.006;5.926;2023-09-30T11:09:17;101829.66;;;17.65;69.10
70909;BME280;58554;52.006;5.926;2023-09-30T11:11:46;101818.41;;;17.73;68.59
70909;BME280;58554;52.006;5.926;2023-09-30T11:14:21;101824.09;;;17.81;68.34
70909;BME280;58554;52.006;5.926;2023-09-30T11:16:53;101830.94;;;17.85;68.09
70909;BME280;58554;52.006;5.926;2023-09-30T11:19:21;101822.81;;;17.87;67.87
70909;BME280;58554;52.006;5.926;2023-09-30T11:21:49;101825.38;;;17.88;67.35
70909;BME280;58554;52.006;5.926;2023-09-30T11:24:21;101821.13;;;17.86;67.29
70909;BME280;58554;52.006;5.926;2023-09-30T11:26:48;101822.81;;;17.87;67.07
70909;BME280;58554;52.006;5.926;2023-09-30T11:29:19;101829.97;;;17.86;67.13
70909;BME280;58554;52.006;5.926;2023-09-30T11:31:47;101818.31;;;17.87;66.79
70909;BME280;58554;52.006;5.926;2023-09-30T11:34:18;101822.91;;;17.85;66.69
70909;BME280;58554;52.006;5.926;2023-09-30T11:36:48;101815.75;;;17.86;66.58
70909;BME280;58554;52.006;5.926;2023-09-30T11:39:21;101811.25;;;17.86;66.61
70909;BME280;58554;52.006;5.926;2023-09-30T11:41:49;101817.44;;;17.87;66.25
70909;BME280;58554;52.006;5.926;2023-09-30T11:44:16;101807.50;;;17.89;66.23
70909;BME280;58554;52.006;5.926;2023-09-30T11:46:50;101804.63;;;17.92;66.24
70909;BME280;58554;52.006;5.926;2023-09-30T11:49:31;101792.84;;;17.94;65.74
70909;BME280;58554;52.006;5.926;2023-09-30T11:52:01;101792.50;;;17.99;65.73
70909;BME280;58554;52.006;5.926;2023-09-30T11:54:29;101788.72;;;18.01;65.30
70909;BME280;58554;52.006;5.926;2023-09-30T11:56:57;101797.91;;;18.10;64.85
70909;BME280;58554;52.006;5.926;2023-09-30T11:59:23;101793.84;;;18.17;64.49
70909;BME280;58554;52.006;5.926;2023-09-30T12:01:50;101786.53;;;18.19;64.08
70909;BME280;58554;52.006;5.926;2023-09-30T12:04:17;101792.53;;;18.23;64.04
70909;BME280;58554;52.006;5.926;2023-09-30T12:06:46;101786.31;;;18.23;63.73
70909;BME280;58554;52.006;5.926;2023-09-30T12:09:13;101795.97;;;18.25;63.73
70909;BME280;58554;52.006;5.926;2023-09-30T12:11:41;101798.63;;;18.25;63.29
70909;BME280;58554;52.006;5.926;2023-09-30T12:14:07;101808.47;;;18.25;63.07
70909;BME280;58554;52.006;5.926;2023-09-30T12:16:34;101808.34;;;18.26;63.22
70909;BME280;58554;52.006;5.926;2023-09-30T12:19:01;101791.09;;;18.30;62.81
70909;BME280;58554;52.006;5.926;2023-09-30T12:21:27;101790.75;;;18.35;62.59
70909;BME280;58554;52.006;5.926;2023-09-30T12:23:56;101786.03;;;18.38;61.95
70909;BME280;58554;52.006;5.926;2023-09-30T12:26:23;101784.94;;;18.41;61.71
70909;BME280;58554;52.006;5.926;2023-09-30T12:28:50;101779.38;;;18.44;61.67
70909;BME280;58554;52.006;5.926;2023-09-30T12:31:16;101784.50;;;18.47;61.61
70909;BME280;58554;52.006;5.926;2023-09-30T12:33:43;101776.09;;;18.52;61.26
70909;BME280;58554;52.006;5.926;2023-09-30T12:36:09;101779.19;;;18.58;61.05
70909;BME280;58554;52.006;5.926;2023-09-30T12:38:36;101771.75;;;18.62;60.50
70909;BME280;58554;52.006;5.926;2023-09-30T12:41:06;101755.47;;;18.65;60.32
70909;BME280;58554;52.006;5.926;2023-09-30T12:43:32;101758.69;;;18.70;60.11
70909;BME280;58554;52.006;5.926;2023-09-30T12:45:59;101754.78;;;18.74;60.23
70909;BME280;58554;52.006;5.926;2023-09-30T12:48:26;101744.72;;;18.78;60.16
70909;BME280;58554;52.006;5.926;2023-09-30T12:50:53;101747.28;;;18.79;59.68
70909;BME280;58554;52.006;5.926;2023-09-30T12:53:19;101744.34;;;18.83;59.52
70909;BME280;58554;52.006;5.926;2023-09-30T12:55:46;101746.66;;;18.87;59.37
70909;BME280;58554;52.006;5.926;2023-09-30T12:58:15;101742.03;;;18.89;59.12